Time;durP1;ratioP1;P1;durP2;ratioP2;P2;SDS_P1;SDS_P2;PMS_P1;PMS_P2;Temp;Humidity;BMP_temperature;BMP_pressure;BME280_temperature;BME280_humidity;BME280_pressure;Samples;Min_cycle;Max_cycle;Signal;HPM_P1;HPM_P2
2021/06/09 00:01:08;;;;;;;6.25;4.43;;;;;;;;;;4420312;32;20038;-74
2021/06/09 00:03:34;;;;;;;9.55;5.00;;;;;;;;;;4433083;32;20030;-74
2021/06/09 00:06:00;;;;;;;6.60;4.75;;;;;;;;;;4431169;32;20471;-74
2021/06/09 00:08:26;;;;;;;6.65;5.00;;;;;;;;;;4431616;32;20064;-74
2021/06/09 00:10:56;;;;;;;7.97;5.18;;;;;;;;;;4432757;32;20037;-75
2021/06/09 00:13:28;;;;;;;7.93;5.28;;;;;;;;;;4430992;32;20045;-75
2021/06/09 00:15:55;;;;;;;7.75;5.32;;;;;;;;;;4430826;32;20452;-74
2021/06/09 00:18:21;;;;;;;5.90;5.30;;;;;;;;;;4431096;32;20049;-74
2021/06/09 00:20:48;;;;;;;6.35;4.72;;;;;;;;;;4431471;32;20038;-75
2021/06/09 00:23:17;;;;;;;7.68;4.25;;;;;;;;;;4421268;32;20041;-76
2021/06/09 00:25:50;;;;;;;8.77;5.47;;;;;;;;;;4429910;32;20110;-75
2021/06/09 00:28:16;;;;;;;5.78;4.68;;;;;;;;;;4431147;32;20068;-74
2021/06/09 00:30:43;;;;;;;7.65;4.90;;;;;;;;;;4431675;32;20050;-74
2021/06/09 00:33:10;;;;;;;6.18;4.00;;;;;;;;;;4431109;32;20029;-74
2021/06/09 00:35:36;;;;;;;7.07;4.07;;;;;;;;;;4432058;32;20073;-74
2021/06/09 00:38:03;;;;;;;4.60;3.85;;;;;;;;;;4431285;32;20038;-74
2021/06/09 00:40:32;;;;;;;6.93;4.43;;;;;;;;;;4426519;32;20060;-75
2021/06/09 00:43:07;;;;;;;7.93;4.40;;;;;;;;;;4431299;32;20042;-74
2021/06/09 00:45:34;;;;;;;6.93;4.32;;;;;;;;;;4431905;32;20033;-74
2021/06/09 00:48:00;;;;;;;7.70;4.03;;;;;;;;;;4432370;32;20400;-74
2021/06/09 00:50:27;;;;;;;5.30;3.53;;;;;;;;;;4432202;32;20030;-74
2021/06/09 00:52:53;;;;;;;6.85;4.40;;;;;;;;;;4431421;32;20064;-76
2021/06/09 00:55:19;;;;;;;6.25;4.05;;;;;;;;;;4419989;32;20049;-76
2021/06/09 00:57:46;;;;;;;5.72;4.32;;;;;;;;;;4430880;32;20038;-74
2021/06/09 01:00:12;;;;;;;6.75;4.20;;;;;;;;;;4432244;32;20042;-75
2021/06/09 01:02:39;;;;;;;8.27;5.53;;;;;;;;;;4432028;32;20042;-74
2021/06/09 01:05:06;;;;;;;9.25;6.32;;;;;;;;;;4430938;32;20377;-74
2021/06/09 01:07:37;;;;;;;8.68;7.03;;;;;;;;;;4432116;32;20038;-74
2021/06/09 01:10:04;;;;;;;9.52;7.90;;;;;;;;;;4432020;32;20042;-74
2021/06/09 01:12:30;;;;;;;8.88;7.72;;;;;;;;;;4430333;32;20095;-74
2021/06/09 01:14:57;;;;;;;9.27;6.82;;;;;;;;;;4430543;32;20026;-74
2021/06/09 01:17:23;;;;;;;9.10;7.72;;;;;;;;;;4428973;32;20033;-75
2021/06/09 01:19:49;;;;;;;8.63;7.05;;;;;;;;;;4431945;32;20034;-75
2021/06/09 01:22:15;;;;;;;9.75;7.97;;;;;;;;;;4430574;32;20042;-74
2021/06/09 01:24:42;;;;;;;8.98;6.65;;;;;;;;;;4430325;32;20060;-75
2021/06/09 01:27:08;;;;;;;8.10;5.53;;;;;;;;;;4431387;32;20056;-76
2021/06/09 01:29:34;;;;;;;6.07;4.90;;;;;;;;;;4429765;32;20038;-76
2021/06/09 01:32:00;;;;;;;8.35;5.25;;;;;;;;;;4431840;32;20076;-74
2021/06/09 01:34:27;;;;;;;5.18;4.22;;;;;;;;;;4430440;32;20041;-74
2021/06/09 01:36:53;;;;;;;5.10;4.00;;;;;;;;;;4425785;32;20098;-75
2021/06/09 01:39:19;;;;;;;4.30;3.03;;;;;;;;;;4428310;32;20421;-74
2021/06/09 01:41:50;;;;;;;8.85;4.35;;;;;;;;;;4427858;32;20060;-74
2021/06/09 01:44:16;;;;;;;5.85;4.07;;;;;;;;;;4428294;32;20120;-75
2021/06/09 01:46:42;;;;;;;8.60;3.80;;;;;;;;;;4428786;32;20055;-74
2021/06/09 01:49:09;;;;;;;4.32;3.92;;;;;;;;;;4427618;32;20613;-74
2021/06/09 01:51:35;;;;;;;11.30;4.80;;;;;;;;;;4428053;32;20060;-74
2021/06/09 01:54:03;;;;;;;6.93;3.83;;;;;;;;;;4427378;32;20041;-76
2021/06/09 01:56:30;;;;;;;6.70;3.80;;;;;;;;;;4428594;32;20036;-75
2021/06/09 01:58:56;;;;;;;6.68;4.10;;;;;;;;;;4426381;32;20398;-75
2021/06/09 02:01:22;;;;;;;4.55;4.15;;;;;;;;;;4428663;32;20072;-74
2021/06/09 02:03:49;;;;;;;4.53;3.97;;;;;;;;;;4426450;32;20086;-74
2021/06/09 02:06:15;;;;;;;4.78;4.05;;;;;;;;;;4427694;32;20079;-74
2021/06/09 02:08:41;;;;;;;5.90;4.28;;;;;;;;;;4427537;32;20029;-74
2021/06/09 02:11:08;;;;;;;5.93;4.35;;;;;;;;;;4429327;32;20109;-75
2021/06/09 02:13:35;;;;;;;5.93;4.12;;;;;;;;;;4427396;32;20037;-74
2021/06/09 02:16:01;;;;;;;4.05;3.65;;;;;;;;;;4426163;32;20041;-78
2021/06/09 02:18:28;;;;;;;8.10;3.95;;;;;;;;;;4427683;32;20079;-74
2021/06/09 02:20:56;;;;;;;6.87;3.85;;;;;;;;;;4427705;32;20049;-74
2021/06/09 02:23:27;;;;;;;5.25;4.18;;;;;;;;;;4427391;32;20100;-74
2021/06/09 02:25:56;;;;;;;4.03;3.62;;;;;;;;;;4428178;32;20059;-74
2021/06/09 02:28:24;;;;;;;4.25;3.70;;;;;;;;;;4427288;32;20067;-75
2021/06/09 02:30:50;;;;;;;6.40;5.03;;;;;;;;;;4427463;32;20413;-74
2021/06/09 02:33:19;;;;;;;5.10;4.25;;;;;;;;;;4428443;32;20042;-74
2021/06/09 02:35:45;;;;;;;5.15;4.57;;;;;;;;;;4427645;32;20038;-75
2021/06/09 02:38:12;;;;;;;6.78;4.95;;;;;;;;;;4425640;32;20037;-75
2021/06/09 02:40:40;;;;;;;7.47;4.25;;;;;;;;;;4410407;32;20092;-74
2021/06/09 02:43:07;;;;;;;4.18;3.78;;;;;;;;;;4427941;32;20033;-74
2021/06/09 02:45:34;;;;;;;5.70;4.57;;;;;;;;;;4428145;32;20462;-74
2021/06/09 02:48:01;;;;;;;4.22;3.20;;;;;;;;;;4427347;32;20029;-74
2021/06/09 02:50:28;;;;;;;5.20;4.20;;;;;;;;;;4427228;32;20076;-75
2021/06/09 02:52:54;;;;;;;4.22;3.78;;;;;;;;;;4428365;32;20456;-74
2021/06/09 02:55:30;;;;;;;5.78;3.90;;;;;;;;;;4427382;32;20057;-75
2021/06/09 02:58:02;;;;;;;4.43;3.90;;;;;;;;;;4428540;32;20347;-74
2021/06/09 03:00:35;;;;;;;6.65;4.07;;;;;;;;;;4427536;32;20030;-74
2021/06/09 03:03:08;;;;;;;6.75;3.40;;;;;;;;;;4424384;32;20081;-74
2021/06/09 03:05:40;;;;;;;5.18;4.30;;;;;;;;;;4426324;32;20064;-74
2021/06/09 03:08:27;;;;;;;6.55;4.10;;;;;;;;;;4426306;32;20068;-74
2021/06/09 03:10:53;;;;;;;5.68;3.90;;;;;;;;;;4424619;32;20061;-74
2021/06/09 03:13:25;;;;;;;6.57;3.92;;;;;;;;;;4423648;32;20839;-74
2021/06/09 03:16:06;;;;;;;4.80;3.95;;;;;;;;;;4424794;32;20061;-74
2021/06/09 03:18:35;;;;;;;5.12;4.15;;;;;;;;;;4424594;32;20082;-74
2021/06/09 03:21:02;;;;;;;4.62;3.75;;;;;;;;;;4424534;32;20073;-74
2021/06/09 03:23:34;;;;;;;5.35;3.85;;;;;;;;;;4424782;32;20037;-74
2021/06/09 03:26:03;;;;;;;4.72;3.97;;;;;;;;;;4426141;32;20061;-74
2021/06/09 03:28:35;;;;;;;10.30;3.80;;;;;;;;;;4424685;32;20086;-75
2021/06/09 03:31:03;;;;;;;6.47;4.20;;;;;;;;;;4424750;32;20130;-74
2021/06/09 03:33:33;;;;;;;6.75;3.92;;;;;;;;;;4424248;32;20046;-74
2021/06/09 03:36:04;;;;;;;5.30;3.60;;;;;;;;;;4425126;32;20064;-74
2021/06/09 03:38:48;;;;;;;4.78;3.60;;;;;;;;;;4425297;32;20666;-74
2021/06/09 03:41:15;;;;;;;6.22;4.10;;;;;;;;;;4424966;32;20068;-74
2021/06/09 03:43:43;;;;;;;4.55;3.70;;;;;;;;;;4426194;32;20077;-74
2021/06/09 03:46:09;;;;;;;6.72;3.75;;;;;;;;;;4424314;32;20037;-73
2021/06/09 03:48:40;;;;;;;5.05;4.03;;;;;;;;;;4424577;32;20037;-74
2021/06/09 03:51:08;;;;;;;5.68;4.30;;;;;;;;;;4421655;32;20112;-74
2021/06/09 03:53:34;;;;;;;5.35;3.97;;;;;;;;;;4428440;32;20061;-74
2021/06/09 03:56:02;;;;;;;5.65;4.20;;;;;;;;;;4428598;32;20255;-74
2021/06/09 03:58:28;;;;;;;5.37;4.00;;;;;;;;;;4425929;32;20034;-74
2021/06/09 04:00:56;;;;;;;4.37;3.92;;;;;;;;;;4428619;32;20098;-74
2021/06/09 04:03:24;;;;;;;5.05;4.05;;;;;;;;;;4427451;32;20121;-73
2021/06/09 04:05:51;;;;;;;7.12;4.43;;;;;;;;;;4425480;32;20038;-73
2021/06/09 04:08:17;;;;;;;5.37;3.80;;;;;;;;;;4428408;32;20109;-74
2021/06/09 04:10:44;;;;;;;6.43;4.00;;;;;;;;;;4424154;32;20079;-74
2021/06/09 04:13:11;;;;;;;6.85;4.82;;;;;;;;;;4427476;32;20099;-74
2021/06/09 04:15:39;;;;;;;5.28;3.95;;;;;;;;;;4428682;32;20108;-74
2021/06/09 04:18:07;;;;;;;3.47;3.03;;;;;;;;;;4427243;32;20034;-73
2021/06/09 04:20:34;;;;;;;6.60;4.40;;;;;;;;;;4425632;32;20068;-74
2021/06/09 04:23:00;;;;;;;7.15;4.03;;;;;;;;;;4425723;32;20030;-74
2021/06/09 04:25:26;;;;;;;6.65;4.10;;;;;;;;;;4428248;32;20060;-74
2021/06/09 04:27:52;;;;;;;5.43;3.80;;;;;;;;;;4427023;32;20090;-74
2021/06/09 04:30:19;;;;;;;8.93;4.57;;;;;;;;;;4427223;32;20509;-74
2021/06/09 04:32:55;;;;;;;4.22;3.65;;;;;;;;;;4427038;32;20479;-74
2021/06/09 04:35:36;;;;;;;6.20;4.87;;;;;;;;;;4425204;32;20065;-74
2021/06/09 04:38:03;;;;;;;6.27;4.47;;;;;;;;;;4428041;32;20057;-75
2021/06/09 04:40:29;;;;;;;8.43;4.68;;;;;;;;;;4427053;32;20033;-74
2021/06/09 04:42:56;;;;;;;6.50;4.32;;;;;;;;;;4425974;32;20037;-73
2021/06/09 04:45:23;;;;;;;11.32;5.40;;;;;;;;;;4427609;32;20057;-74
2021/06/09 04:47:50;;;;;;;8.05;6.62;;;;;;;;;;4425090;32;20084;-73
2021/06/09 04:50:19;;;;;;;6.60;4.90;;;;;;;;;;4426820;32;20045;-74
2021/06/09 04:52:46;;;;;;;7.53;5.22;;;;;;;;;;4426669;32;20072;-73
2021/06/09 04:55:13;;;;;;;7.47;5.30;;;;;;;;;;4426060;32;20096;-74
2021/06/09 04:57:39;;;;;;;11.50;5.35;;;;;;;;;;4426670;32;20101;-73
2021/06/09 05:00:07;;;;;;;8.55;4.65;;;;;;;;;;4427097;32;20030;-73
2021/06/09 05:02:33;;;;;;;5.68;5.03;;;;;;;;;;4424898;32;20089;-73
2021/06/09 05:04:59;;;;;;;6.47;5.47;;;;;;;;;;4426407;32;20034;-74
2021/06/09 05:07:26;;;;;;;8.32;4.78;;;;;;;;;;4427482;32;20041;-74
2021/06/09 05:09:53;;;;;;;10.63;4.87;;;;;;;;;;4426422;32;20064;-73
2021/06/09 05:12:30;;;;;;;5.82;4.55;;;;;;;;;;4427300;32;20093;-75
2021/06/09 05:15:07;;;;;;;7.32;4.72;;;;;;;;;;4425829;32;20317;-74
2021/06/09 05:17:42;;;;;;;7.15;5.00;;;;;;;;;;4424722;32;20056;-76
2021/06/09 05:20:10;;;;;;;8.00;5.03;;;;;;;;;;4426358;32;20038;-74
2021/06/09 05:22:48;;;;;;;6.95;5.00;;;;;;;;;;4427234;32;20064;-74
2021/06/09 05:25:15;;;;;;;6.90;4.50;;;;;;;;;;4426047;32;20086;-74
2021/06/09 05:27:43;;;;;;;9.80;5.68;;;;;;;;;;4425339;32;20096;-74
2021/06/09 05:30:09;;;;;;;11.48;7.20;;;;;;;;;;4427220;32;20072;-73
2021/06/09 05:32:37;;;;;;;8.43;7.10;;;;;;;;;;4425884;32;20037;-74
2021/06/09 05:35:04;;;;;;;9.25;6.53;;;;;;;;;;4426429;32;20063;-73
2021/06/09 05:37:30;;;;;;;7.97;6.20;;;;;;;;;;4424374;32;20037;-74
2021/06/09 05:39:59;;;;;;;5.95;5.32;;;;;;;;;;4426875;32;20038;-73
2021/06/09 05:42:26;;;;;;;9.00;6.15;;;;;;;;;;4425394;32;20434;-77
2021/06/09 05:44:54;;;;;;;16.52;10.95;;;;;;;;;;4418440;32;20041;-73
2021/06/09 05:47:21;;;;;;;13.38;9.75;;;;;;;;;;4425385;32;20075;-73
2021/06/09 05:49:48;;;;;;;12.00;9.73;;;;;;;;;;4424486;32;20049;-73
2021/06/09 05:52:14;;;;;;;13.65;10.48;;;;;;;;;;4427322;32;20369;-73
2021/06/09 05:54:42;;;;;;;13.93;11.45;;;;;;;;;;4424400;32;20063;-73
2021/06/09 05:57:10;;;;;;;15.98;10.93;;;;;;;;;;4424150;32;20078;-74
2021/06/09 05:59:38;;;;;;;13.02;10.48;;;;;;;;;;4426466;32;20041;-74
2021/06/09 06:02:05;;;;;;;15.10;10.50;;;;;;;;;;4424649;32;20067;-73
2021/06/09 06:04:32;;;;;;;13.77;9.35;;;;;;;;;;4426774;32;20125;-74
2021/06/09 06:06:58;;;;;;;12.23;7.40;;;;;;;;;;4426281;32;20034;-73
2021/06/09 06:09:25;;;;;;;17.35;9.55;;;;;;;;;;4425981;32;20358;-74
2021/06/09 06:11:52;;;;;;;9.93;7.60;;;;;;;;;;4426277;32;20065;-73
2021/06/09 06:14:19;;;;;;;11.07;8.13;;;;;;;;;;4425222;32;20608;-72
2021/06/09 06:16:55;;;;;;;14.32;7.78;;;;;;;;;;4425490;32;20049;-73
2021/06/09 06:19:21;;;;;;;12.02;8.05;;;;;;;;;;4425907;32;20061;-73
2021/06/09 06:21:47;;;;;;;10.80;6.97;;;;;;;;;;4425484;32;20038;-73
2021/06/09 06:24:18;;;;;;;10.45;6.37;;;;;;;;;;4425792;32;20443;-73
2021/06/09 06:26:47;;;;;;;7.20;6.07;;;;;;;;;;4425081;32;20461;-73
2021/06/09 06:29:14;;;;;;;14.10;6.28;;;;;;;;;;4425638;32;20065;-73
2021/06/09 06:31:40;;;;;;;8.48;5.62;;;;;;;;;;4424595;32;20034;-81
2021/06/09 06:34:06;;;;;;;11.70;7.18;;;;;;;;;;4426334;32;20067;-82
2021/06/09 06:36:33;;;;;;;10.45;5.55;;;;;;;;;;4421223;32;20049;-82
2021/06/09 06:39:00;;;;;;;8.05;5.60;;;;;;;;;;4419993;32;20050;-75
2021/06/09 06:41:27;;;;;;;7.87;6.00;;;;;;;;;;4413420;32;20056;-75
2021/06/09 06:43:53;;;;;;;9.57;6.18;;;;;;;;;;4423799;32;20055;-76
2021/06/09 06:46:20;;;;;;;8.18;6.93;;;;;;;;;;4424570;32;20037;-76
2021/06/09 06:48:47;;;;;;;7.97;5.43;;;;;;;;;;4423457;32;20068;-76
2021/06/09 06:51:14;;;;;;;7.45;5.93;;;;;;;;;;4426330;32;20033;-76
2021/06/09 06:53:42;;;;;;;7.47;5.85;;;;;;;;;;4424328;32;20037;-76
2021/06/09 06:56:09;;;;;;;9.43;4.95;;;;;;;;;;4424178;32;20616;-81
2021/06/09 06:58:36;;;;;;;11.18;6.20;;;;;;;;;;4425022;32;20064;-76
2021/06/09 07:01:02;;;;;;;8.18;5.30;;;;;;;;;;4424943;32;20042;-76
2021/06/09 07:03:30;;;;;;;7.00;4.80;;;;;;;;;;4423778;32;20128;-76
2021/06/09 07:05:57;;;;;;;8.05;4.72;;;;;;;;;;4423756;32;20072;-75
2021/06/09 07:08:24;;;;;;;8.32;4.53;;;;;;;;;;4425562;32;20425;-76
2021/06/09 07:10:51;;;;;;;6.47;4.68;;;;;;;;;;4425586;32;20045;-76
2021/06/09 07:13:17;;;;;;;9.38;4.68;;;;;;;;;;4426186;32;20715;-76
2021/06/09 07:15:46;;;;;;;6.65;4.53;;;;;;;;;;4424231;32;20038;-75
2021/06/09 07:18:12;;;;;;;10.55;5.95;;;;;;;;;;4424603;32;20081;-76
2021/06/09 07:20:40;;;;;;;8.52;7.62;;;;;;;;;;4424401;32;20050;-76
2021/06/09 07:23:06;;;;;;;8.18;5.68;;;;;;;;;;4424384;32;20033;-76
2021/06/09 07:25:32;;;;;;;7.93;5.15;;;;;;;;;;4425345;32;20033;-76
2021/06/09 07:28:02;;;;;;;14.00;7.25;;;;;;;;;;4426532;32;20060;-76
2021/06/09 07:30:29;;;;;;;6.22;4.43;;;;;;;;;;4427301;32;20046;-76
2021/06/09 07:32:56;;;;;;;9.55;5.20;;;;;;;;;;4428349;32;20079;-76
2021/06/09 07:35:22;;;;;;;10.57;5.65;;;;;;;;;;4427347;32;20068;-76
2021/06/09 07:37:50;;;;;;;6.50;4.35;;;;;;;;;;4427183;32;20060;-76
2021/06/09 07:40:23;;;;;;;6.78;4.43;;;;;;;;;;4426286;32;20057;-75
2021/06/09 07:42:50;;;;;;;9.40;5.80;;;;;;;;;;4428296;32;20086;-76
2021/06/09 07:45:18;;;;;;;8.07;5.18;;;;;;;;;;4427387;32;20425;-76
2021/06/09 07:47:46;;;;;;;6.75;4.47;;;;;;;;;;4426711;32;20053;-76
2021/06/09 07:50:14;;;;;;;6.40;5.53;;;;;;;;;;4426773;32;20093;-76
2021/06/09 07:52:42;;;;;;;7.70;6.30;;;;;;;;;;4426842;32;20060;-77
2021/06/09 07:55:08;;;;;;;5.95;5.10;;;;;;;;;;4423842;32;20062;-76
2021/06/09 07:57:37;;;;;;;9.15;4.78;;;;;;;;;;4427864;32;20034;-77
2021/06/09 08:00:07;;;;;;;10.93;6.53;;;;;;;;;;4425093;32;20702;-76
2021/06/09 08:02:35;;;;;;;6.83;4.80;;;;;;;;;;4427100;32;20037;-75
2021/06/09 08:05:05;;;;;;;8.75;7.20;;;;;;;;;;4425218;32;20172;-75
2021/06/09 08:07:32;;;;;;;11.93;8.70;;;;;;;;;;4426396;32;20035;-76
2021/06/09 08:09:58;;;;;;;11.63;7.37;;;;;;;;;;4427370;32;20097;-76
2021/06/09 08:12:24;;;;;;;8.50;5.03;;;;;;;;;;4427232;32;20216;-77
2021/06/09 08:14:51;;;;;;;8.40;5.93;;;;;;;;;;4426435;32;20055;-78
2021/06/09 08:17:21;;;;;;;8.90;5.85;;;;;;;;;;4426377;32;20034;-78
2021/06/09 08:19:48;;;;;;;7.93;5.53;;;;;;;;;;4425086;32;20037;-76
2021/06/09 08:22:14;;;;;;;9.02;5.50;;;;;;;;;;4425936;32;20030;-76
2021/06/09 08:24:41;;;;;;;6.62;4.37;;;;;;;;;;4425562;32;20068;-77
2021/06/09 08:27:07;;;;;;;8.02;5.97;;;;;;;;;;4427656;32;20121;-78
2021/06/09 08:29:36;;;;;;;7.25;5.32;;;;;;;;;;4427103;32;20076;-77
2021/06/09 08:32:04;;;;;;;8.27;6.70;;;;;;;;;;4425036;32;20069;-77
2021/06/09 08:34:30;;;;;;;8.05;6.18;;;;;;;;;;4425575;32;20041;-76
2021/06/09 08:36:57;;;;;;;11.48;7.90;;;;;;;;;;4426079;32;20059;-76
2021/06/09 08:39:25;;;;;;;11.65;9.13;;;;;;;;;;4425054;32;20616;-76
2021/06/09 08:41:54;;;;;;;8.88;6.18;;;;;;;;;;4426289;32;20125;-76
2021/06/09 08:44:21;;;;;;;6.80;4.72;;;;;;;;;;4424351;32;20108;-76
2021/06/09 08:46:48;;;;;;;6.60;4.15;;;;;;;;;;4423842;32;20034;-76
2021/06/09 08:49:17;;;;;;;6.20;4.35;;;;;;;;;;4426145;32;20068;-77
2021/06/09 08:51:44;;;;;;;7.37;4.50;;;;;;;;;;4424147;32;20033;-76
2021/06/09 08:54:10;;;;;;;5.82;3.80;;;;;;;;;;4425970;32;21994;-79
2021/06/09 08:56:38;;;;;;;5.72;3.70;;;;;;;;;;4425287;32;20634;-78
2021/06/09 08:59:05;;;;;;;6.70;3.72;;;;;;;;;;4425934;32;20072;-76
2021/06/09 09:01:33;;;;;;;6.45;4.12;;;;;;;;;;4425577;32;20093;-76
2021/06/09 09:03:59;;;;;;;5.65;3.97;;;;;;;;;;4425538;32;21069;-76
2021/06/09 09:06:26;;;;;;;4.57;4.12;;;;;;;;;;4424901;32;20094;-75
2021/06/09 09:08:53;;;;;;;6.22;4.97;;;;;;;;;;4425799;32;20038;-76
2021/06/09 09:11:21;;;;;;;9.15;6.97;;;;;;;;;;4425480;32;20475;-76
2021/06/09 09:13:47;;;;;;;13.35;6.70;;;;;;;;;;4425370;32;20033;-76
2021/06/09 09:16:14;;;;;;;12.30;11.10;;;;;;;;;;4425404;32;20087;-76
2021/06/09 09:18:41;;;;;;;8.93;7.90;;;;;;;;;;4425410;32;20538;-76
2021/06/09 09:21:08;;;;;;;12.70;8.18;;;;;;;;;;4423303;32;20130;-75
2021/06/09 09:23:35;;;;;;;10.30;5.93;;;;;;;;;;4424660;32;20068;-76
2021/06/09 09:26:20;;;;;;;9.23;5.78;;;;;;;;;;4426263;32;20149;-74
2021/06/09 09:28:47;;;;;;;11.40;7.15;;;;;;;;;;4424725;32;20072;-74
2021/06/09 09:31:15;;;;;;;5.53;4.30;;;;;;;;;;4423252;32;20431;-80
2021/06/09 09:33:42;;;;;;;7.75;4.85;;;;;;;;;;4425811;32;20065;-77
2021/06/09 09:36:22;;;;;;;9.65;4.95;;;;;;;;;;4425671;32;20577;-75
2021/06/09 09:38:48;;;;;;;7.37;4.60;;;;;;;;;;4425359;32;20143;-75
2021/06/09 09:41:18;;;;;;;8.35;6.28;;;;;;;;;;4414507;32;20591;-74
2021/06/09 09:43:46;;;;;;;7.45;5.60;;;;;;;;;;4420394;32;20124;-74
2021/06/09 09:46:20;;;;;;;6.35;5.10;;;;;;;;;;4422775;32;20070;-74
2021/06/09 09:48:58;;;;;;;7.18;3.87;;;;;;;;;;4424003;32;20090;-77
2021/06/09 09:51:26;;;;;;;6.62;4.85;;;;;;;;;;4423985;32;20034;-74
2021/06/09 09:54:00;;;;;;;10.88;5.25;;;;;;;;;;4423118;32;20082;-75
2021/06/09 09:56:27;;;;;;;8.07;5.15;;;;;;;;;;4423599;32;20460;-74
2021/06/09 09:59:05;;;;;;;10.38;4.10;;;;;;;;;;4423997;32;20455;-74
2021/06/09 10:01:33;;;;;;;5.82;4.03;;;;;;;;;;4422835;32;20081;-77
2021/06/09 10:04:00;;;;;;;7.28;4.47;;;;;;;;;;4422631;32;20037;-74
2021/06/09 10:06:34;;;;;;;7.35;5.93;;;;;;;;;;4416915;32;20099;-75
2021/06/09 10:09:21;;;;;;;6.65;4.12;;;;;;;;;;4414293;32;20052;-75
2021/06/09 10:11:48;;;;;;;6.65;3.90;;;;;;;;;;4416195;32;20069;-75
2021/06/09 10:14:16;;;;;;;5.00;4.12;;;;;;;;;;4412766;32;20154;-74
2021/06/09 10:16:43;;;;;;;5.65;3.45;;;;;;;;;;4420243;32;20385;-74
2021/06/09 10:19:10;;;;;;;4.62;3.30;;;;;;;;;;4423840;32;20106;-74
2021/06/09 10:21:47;;;;;;;7.87;4.68;;;;;;;;;;4424532;32;20355;-75
2021/06/09 10:24:13;;;;;;;9.57;4.45;;;;;;;;;;4424174;32;20037;-75
2021/06/09 10:26:41;;;;;;;5.57;4.45;;;;;;;;;;4423340;32;20086;-74
2021/06/09 10:29:17;;;;;;;10.45;5.72;;;;;;;;;;4423458;32;21560;-75
2021/06/09 10:31:45;;;;;;;7.55;3.62;;;;;;;;;;4416889;32;20653;-75
2021/06/09 10:34:11;;;;;;;7.97;3.78;;;;;;;;;;4423139;32;20103;-75
2021/06/09 10:36:42;;;;;;;6.68;3.80;;;;;;;;;;4424072;32;20496;-74
2021/06/09 10:39:09;;;;;;;5.80;3.10;;;;;;;;;;4424475;32;20037;-75
2021/06/09 10:41:38;;;;;;;4.80;3.50;;;;;;;;;;4422528;32;20652;-75
2021/06/09 10:44:05;;;;;;;5.72;3.17;;;;;;;;;;4422949;32;20589;-74
2021/06/09 10:46:33;;;;;;;8.55;4.03;;;;;;;;;;4424129;32;20081;-75
2021/06/09 10:49:02;;;;;;;5.87;3.25;;;;;;;;;;4422740;32;20135;-75
2021/06/09 10:51:28;;;;;;;5.47;3.62;;;;;;;;;;4423610;32;20474;-76
2021/06/09 10:53:56;;;;;;;5.28;4.15;;;;;;;;;;4422700;32;20053;-74
2021/06/09 10:56:23;;;;;;;5.28;3.75;;;;;;;;;;4422844;32;20072;-75
2021/06/09 10:58:50;;;;;;;5.57;4.15;;;;;;;;;;4422611;32;20102;-75
2021/06/09 11:01:16;;;;;;;8.38;5.20;;;;;;;;;;4423731;32;20102;-74
2021/06/09 11:03:46;;;;;;;5.43;4.85;;;;;;;;;;4426825;32;20116;-74
2021/06/09 11:06:12;;;;;;;8.68;4.85;;;;;;;;;;4425851;32;20513;-74
2021/06/09 11:08:39;;;;;;;7.80;6.90;;;;;;;;;;4427047;32;20594;-74
2021/06/09 11:11:17;;;;;;;7.47;4.95;;;;;;;;;;4427383;32;20058;-74
2021/06/09 11:13:46;;;;;;;6.57;4.40;;;;;;;;;;4427350;32;20228;-75
2021/06/09 11:16:14;;;;;;;5.57;4.00;;;;;;;;;;4427172;32;20069;-75
2021/06/09 11:18:41;;;;;;;6.22;4.80;;;;;;;;;;4427022;32;20106;-74
2021/06/09 11:21:11;;;;;;;6.12;4.43;;;;;;;;;;4426264;32;20109;-74
2021/06/09 11:23:40;;;;;;;4.10;3.75;;;;;;;;;;4426828;32;20453;-74
2021/06/09 11:26:07;;;;;;;6.10;3.92;;;;;;;;;;4426989;32;20042;-76
2021/06/09 11:28:35;;;;;;;5.55;3.95;;;;;;;;;;4426853;32;20425;-75
2021/06/09 11:31:05;;;;;;;4.80;3.95;;;;;;;;;;4425258;32;20209;-74
2021/06/09 11:33:32;;;;;;;6.45;4.07;;;;;;;;;;4426904;32;20070;-75
2021/06/09 11:35:58;;;;;;;8.02;5.00;;;;;;;;;;4426360;32;20034;-75
2021/06/09 11:38:29;;;;;;;5.60;4.97;;;;;;;;;;4426316;32;20085;-74
2021/06/09 11:41:04;;;;;;;10.88;6.47;;;;;;;;;;4424845;32;20057;-74
2021/06/09 11:43:33;;;;;;;6.70;4.68;;;;;;;;;;4426421;32;20111;-76
2021/06/09 11:46:01;;;;;;;8.35;4.85;;;;;;;;;;4426082;32;20060;-74
2021/06/09 11:48:28;;;;;;;6.82;5.07;;;;;;;;;;4422915;32;20049;-79
2021/06/09 11:51:17;;;;;;;6.47;4.30;;;;;;;;;;4426695;32;20033;-74
2021/06/09 11:53:46;;;;;;;7.30;5.25;;;;;;;;;;4425554;32;20144;-74
2021/06/09 11:56:14;;;;;;;7.22;5.85;;;;;;;;;;4424321;32;20111;-75
2021/06/09 11:58:40;;;;;;;6.30;4.37;;;;;;;;;;4425608;32;20354;-77
2021/06/09 12:01:11;;;;;;;5.85;5.00;;;;;;;;;;4426432;32;20578;-75
2021/06/09 12:03:39;;;;;;;6.47;5.87;;;;;;;;;;4426146;32;20068;-74
2021/06/09 12:06:34;;;;;;;6.32;4.97;;;;;;;;;;4414030;32;20070;-74
2021/06/09 12:09:01;;;;;;;5.20;4.12;;;;;;;;;;4409635;32;20481;-74
2021/06/09 12:11:35;;;;;;;6.15;3.25;;;;;;;;;;4425933;32;20059;-78
2021/06/09 12:14:13;;;;;;;6.12;4.10;;;;;;;;;;4423562;32;20034;-74
2021/06/09 12:16:39;;;;;;;6.68;3.25;;;;;;;;;;4424105;32;20077;-78
2021/06/09 12:19:05;;;;;;;4.70;3.08;;;;;;;;;;4426352;32;20637;-75
2021/06/09 12:21:31;;;;;;;4.82;2.80;;;;;;;;;;4423039;32;20276;-80
2021/06/09 12:23:59;;;;;;;8.02;3.20;;;;;;;;;;4421621;32;20064;-77
2021/06/09 12:26:25;;;;;;;7.22;3.10;;;;;;;;;;4426234;32;20042;-75
2021/06/09 12:29:05;;;;;;;7.10;3.45;;;;;;;;;;4424340;32;20480;-74
2021/06/09 12:31:35;;;;;;;4.18;3.35;;;;;;;;;;4421765;32;20667;-80
2021/06/09 12:34:04;;;;;;;7.12;3.40;;;;;;;;;;4424688;32;20069;-75
2021/06/09 12:36:31;;;;;;;8.85;4.50;;;;;;;;;;4418762;32;20818;-76
2021/06/09 12:38:57;;;;;;;9.05;3.60;;;;;;;;;;4414338;32;20087;-73
2021/06/09 12:41:31;;;;;;;5.93;3.45;;;;;;;;;;4416328;32;20610;-74
2021/06/09 12:44:11;;;;;;;5.87;3.47;;;;;;;;;;4423978;32;20429;-74
2021/06/09 12:46:37;;;;;;;8.45;3.97;;;;;;;;;;4422457;32;20389;-74
2021/06/09 12:49:03;;;;;;;4.95;4.10;;;;;;;;;;4421464;32;20057;-74
2021/06/09 12:51:29;;;;;;;5.57;4.05;;;;;;;;;;4424707;32;20029;-74
2021/06/09 12:53:56;;;;;;;7.30;3.67;;;;;;;;;;4425302;32;20117;-74
2021/06/09 12:56:22;;;;;;;6.60;4.68;;;;;;;;;;4424362;32;20077;-80
2021/06/09 12:58:50;;;;;;;7.12;4.40;;;;;;;;;;4424779;32;20671;-79
2021/06/09 13:01:17;;;;;;;9.63;4.35;;;;;;;;;;4424000;32;20029;-78
2021/06/09 13:03:46;;;;;;;7.68;3.80;;;;;;;;;;4424674;32;20077;-77
2021/06/09 13:06:15;;;;;;;7.87;4.50;;;;;;;;;;4423309;32;20073;-79
2021/06/09 13:08:45;;;;;;;8.75;4.35;;;;;;;;;;4424482;32;20042;-74
2021/06/09 13:11:16;;;;;;;5.53;4.10;;;;;;;;;;4410811;32;20414;-77
2021/06/09 13:13:52;;;;;;;6.90;4.30;;;;;;;;;;4410041;32;20061;-75
2021/06/09 13:16:20;;;;;;;6.55;4.30;;;;;;;;;;4425502;32;20071;-73
2021/06/09 13:19:01;;;;;;;7.37;5.00;;;;;;;;;;4415052;32;20045;-74
2021/06/09 13:21:32;;;;;;;5.70;4.22;;;;;;;;;;4425249;32;20026;-74
2021/06/09 13:24:00;;;;;;;6.72;3.85;;;;;;;;;;4424086;32;20029;-74
2021/06/09 13:26:30;;;;;;;8.45;4.78;;;;;;;;;;4419672;32;20030;-75
2021/06/09 13:28:56;;;;;;;8.25;4.53;;;;;;;;;;4420197;32;20061;-80
2021/06/09 13:31:30;;;;;;;9.82;4.85;;;;;;;;;;4421593;32;20328;-75
2021/06/09 13:33:57;;;;;;;10.48;5.15;;;;;;;;;;4421147;32;20062;-76
2021/06/09 13:36:23;;;;;;;7.50;4.37;;;;;;;;;;4421073;32;20465;-75
2021/06/09 13:38:49;;;;;;;15.02;5.32;;;;;;;;;;4423567;32;20055;-76
2021/06/09 13:41:16;;;;;;;11.18;4.75;;;;;;;;;;4423368;32;20026;-78
2021/06/09 13:43:45;;;;;;;6.20;4.05;;;;;;;;;;4417202;32;20398;-77
2021/06/09 13:46:11;;;;;;;9.82;4.70;;;;;;;;;;4421724;32;20097;-75
2021/06/09 13:48:45;;;;;;;11.57;5.47;;;;;;;;;;4420226;32;20465;-74
2021/06/09 13:51:16;;;;;;;14.70;5.53;;;;;;;;;;4416728;32;20042;-86
2021/06/09 13:53:53;;;;;;;8.23;4.80;;;;;;;;;;4421456;32;20470;-74
2021/06/09 13:56:30;;;;;;;7.72;5.18;;;;;;;;;;4418700;32;20288;-74
2021/06/09 13:59:30;;;;;;;11.43;5.07;;;;;;;;;;4421072;32;20049;-74
2021/06/09 14:02:03;;;;;;;10.40;5.15;;;;;;;;;;4386057;32;20190;-74
2021/06/09 14:04:36;;;;;;;5.85;4.10;;;;;;;;;;4410834;32;20572;-74
2021/06/09 14:07:03;;;;;;;14.23;5.03;;;;;;;;;;4410979;32;20077;-74
2021/06/09 14:09:30;;;;;;;11.88;5.40;;;;;;;;;;4408966;32;20030;-74
2021/06/09 14:11:56;;;;;;;10.18;4.90;;;;;;;;;;4410667;32;20098;-74
2021/06/09 14:14:23;;;;;;;11.55;5.57;;;;;;;;;;4415143;32;20077;-74
2021/06/09 14:17:25;;;;;;;7.75;5.53;;;;;;;;;;4411693;32;20331;-76
2021/06/09 14:19:53;;;;;;;10.25;5.87;;;;;;;;;;4386142;32;20516;-74
2021/06/09 14:22:24;;;;;;;9.50;5.22;;;;;;;;;;4408462;32;20525;-73
2021/06/09 14:24:50;;;;;;;12.60;5.30;;;;;;;;;;4409582;32;20432;-74
2021/06/09 14:27:17;;;;;;;9.40;5.55;;;;;;;;;;4408754;32;20030;-74
2021/06/09 14:30:03;;;;;;;10.82;5.68;;;;;;;;;;4412399;32;20354;-74
2021/06/09 14:32:30;;;;;;;9.57;5.37;;;;;;;;;;4409536;32;20446;-74
2021/06/09 14:35:10;;;;;;;9.75;5.35;;;;;;;;;;4411230;32;20493;-74
2021/06/09 14:37:40;;;;;;;8.25;5.07;;;;;;;;;;4410834;32;20042;-74
2021/06/09 14:40:15;;;;;;;9.73;5.12;;;;;;;;;;4409008;32;20081;-74
2021/06/09 14:42:41;;;;;;;10.48;5.55;;;;;;;;;;4408812;32;20060;-74
2021/06/09 14:45:28;;;;;;;9.25;5.10;;;;;;;;;;4411492;32;20030;-74
2021/06/09 14:48:18;;;;;;;9.13;5.62;;;;;;;;;;4410984;32;20045;-75
2021/06/09 14:50:45;;;;;;;9.70;5.70;;;;;;;;;;4408376;32;20430;-74